sensor_id;sensor_type;location;lat;lon;timestamp;pressure;altitude;pressure_sealevel;temperature;humidity
5812;BME280;2932;52.400;9.558;2023-06-19T00:01:55;100498.66;;;27.22;46.82
5812;BME280;2932;52.400;9.558;2023-06-19T00:04:20;100496.75;;;27.19;46.83
5812;BME280;2932;52.400;9.558;2023-06-19T00:06:45;100494.56;;;27.23;46.73
5812;BME280;2932;52.400;9.558;2023-06-19T00:09:11;100485.69;;;27.21;46.49
5812;BME280;2932;52.400;9.558;2023-06-19T00:11:36;100490.91;;;27.22;46.57
5812;BME280;2932;52.400;9.558;2023-06-19T00:14:02;100492.97;;;27.22;46.80
5812;BME280;2932;52.400;9.558;2023-06-19T00:16:27;100490.41;;;27.15;46.58
5812;BME280;2932;52.400;9.558;2023-06-19T00:18:52;100480.00;;;27.21;46.57
5812;BME280;2932;52.400;9.558;2023-06-19T00:21:24;100487.28;;;27.22;46.28
5812;BME280;2932;52.400;9.558;2023-06-19T00:23:50;100479.06;;;27.15;46.64
5812;BME280;2932;52.400;9.558;2023-06-19T00:26:16;100474.44;;;27.08;47.04
5812;BME280;2932;52.400;9.558;2023-06-19T00:28:41;100470.97;;;26.91;46.67
5812;BME280;2932;52.400;9.558;2023-06-19T00:31:08;100475.50;;;27.02;47.02
5812;BME280;2932;52.400;9.558;2023-06-19T00:33:34;100471.53;;;26.99;47.11
5812;BME280;2932;52.400;9.558;2023-06-19T00:35:59;100469.53;;;27.09;46.70
5812;BME280;2932;52.400;9.558;2023-06-19T00:38:26;100464.00;;;27.05;46.69
5812;BME280;2932;52.400;9.558;2023-06-19T00:40:51;100463.72;;;27.12;46.37
5812;BME280;2932;52.400;9.558;2023-06-19T00:43:17;100463.88;;;27.09;46.63
5812;BME280;2932;52.400;9.558;2023-06-19T00:45:42;100459.13;;;27.06;46.79
5812;BME280;2932;52.400;9.558;2023-06-19T00:48:08;100455.00;;;27.07;46.71
5812;BME280;2932;52.400;9.558;2023-06-19T00:50:34;100451.50;;;27.03;46.60
5812;BME280;2932;52.400;9.558;2023-06-19T00:53:00;100450.00;;;27.11;46.73
5812;BME280;2932;52.400;9.558;2023-06-19T00:55:29;100452.56;;;26.96;46.74
5812;BME280;2932;52.400;9.558;2023-06-19T00:57:55;100446.88;;;26.96;46.74
5812;BME280;2932;52.400;9.558;2023-06-19T01:00:20;100447.41;;;27.04;46.74
5812;BME280;2932;52.400;9.558;2023-06-19T01:02:46;100438.09;;;27.03;46.55
5812;BME280;2932;52.400;9.558;2023-06-19T01:05:12;100437.03;;;26.88;46.88
5812;BME280;2932;52.400;9.558;2023-06-19T01:08:00;100439.53;;;26.86;47.12
5812;BME280;2932;52.400;9.558;2023-06-19T01:10:40;100444.00;;;26.52;47.35
5812;BME280;2932;52.400;9.558;2023-06-19T01:13:12;100434.66;;;26.86;47.04
5812;BME280;2932;52.400;9.558;2023-06-19T01:15:39;100434.53;;;26.68;47.28
5812;BME280;2932;52.400;9.558;2023-06-19T01:18:07;100437.50;;;26.65;47.56
5812;BME280;2932;52.400;9.558;2023-06-19T01:20:32;100436.97;;;26.57;47.28
5812;BME280;2932;52.400;9.558;2023-06-19T01:23:06;100435.78;;;26.67;47.47
5812;BME280;2932;52.400;9.558;2023-06-19T01:25:31;100433.75;;;26.68;47.38
5812;BME280;2932;52.400;9.558;2023-06-19T01:27:57;100423.19;;;26.68;47.60
5812;BME280;2932;52.400;9.558;2023-06-19T01:30:22;100425.75;;;26.75;47.72
5812;BME280;2932;52.400;9.558;2023-06-19T01:33:06;100430.88;;;26.89;47.48
5812;BME280;2932;52.400;9.558;2023-06-19T01:35:36;100414.53;;;26.72;48.06
5812;BME280;2932;52.400;9.558;2023-06-19T01:38:02;100422.13;;;26.75;47.78
5812;BME280;2932;52.400;9.558;2023-06-19T01:40:30;100416.69;;;26.89;47.45
5812;BME280;2932;52.400;9.558;2023-06-19T01:42:58;100416.81;;;26.86;47.35
5812;BME280;2932;52.400;9.558;2023-06-19T01:45:27;100419.19;;;26.87;47.31
5812;BME280;2932;52.400;9.558;2023-06-19T01:47:53;100418.88;;;26.64;47.91
5812;BME280;2932;52.400;9.558;2023-06-19T01:50:18;100417.56;;;26.77;47.64
5812;BME280;2932;52.400;9.558;2023-06-19T01:52:45;100417.03;;;26.70;47.81
5812;BME280;2932;52.400;9.558;2023-06-19T01:55:10;100419.69;;;26.30;48.41
5812;BME280;2932;52.400;9.558;2023-06-19T01:57:36;100421.34;;;26.40;48.61
5812;BME280;2932;52.400;9.558;2023-06-19T02:00:02;100423.19;;;26.68;47.96
5812;BME280;2932;52.400;9.558;2023-06-19T02:02:30;100423.88;;;26.38;48.68
5812;BME280;2932;52.400;9.558;2023-06-19T02:04:55;100415.00;;;26.01;49.04
5812;BME280;2932;52.400;9.558;2023-06-19T02:07:20;100414.00;;;25.95;49.08
5812;BME280;2932;52.400;9.558;2023-06-19T02:09:46;100411.88;;;25.86;49.22
5812;BME280;2932;52.400;9.558;2023-06-19T02:12:11;100402.22;;;25.84;49.67
5812;BME280;2932;52.400;9.558;2023-06-19T02:14:37;100389.84;;;25.90;49.60
5812;BME280;2932;52.400;9.558;2023-06-19T02:17:02;100386.63;;;26.01;49.20
5812;BME280;2932;52.400;9.558;2023-06-19T02:19:27;100387.47;;;25.89;49.47
5812;BME280;2932;52.400;9.558;2023-06-19T02:21:52;100379.38;;;26.00;49.32
5812;BME280;2932;52.400;9.558;2023-06-19T02:24:18;100375.81;;;25.87;49.72
5812;BME280;2932;52.400;9.558;2023-06-19T02:26:43;100373.69;;;26.00;49.51
5812;BME280;2932;52.400;9.558;2023-06-19T02:29:09;100368.91;;;25.75;49.91
5812;BME280;2932;52.400;9.558;2023-06-19T02:31:35;100369.91;;;25.94;49.73
5812;BME280;2932;52.400;9.558;2023-06-19T02:34:00;100367.13;;;26.03;49.50
5812;BME280;2932;52.400;9.558;2023-06-19T02:36:26;100368.22;;;25.84;49.55
5812;BME280;2932;52.400;9.558;2023-06-19T02:38:51;100370.25;;;25.83;49.52
5812;BME280;2932;52.400;9.558;2023-06-19T02:41:16;100365.13;;;26.25;48.57
5812;BME280;2932;52.400;9.558;2023-06-19T02:43:44;100367.59;;;26.36;48.59
5812;BME280;2932;52.400;9.558;2023-06-19T02:46:10;100378.16;;;26.36;48.74
5812;BME280;2932;52.400;9.558;2023-06-19T02:48:35;100372.16;;;25.99;49.24
5812;BME280;2932;52.400;9.558;2023-06-19T02:51:00;100372.50;;;26.36;48.87
5812;BME280;2932;52.400;9.558;2023-06-19T02:53:26;100377.19;;;26.17;49.19
5812;BME280;2932;52.400;9.558;2023-06-19T02:55:51;100374.66;;;26.32;48.95
5812;BME280;2932;52.400;9.558;2023-06-19T02:58:17;100377.16;;;26.51;48.78
5812;BME280;2932;52.400;9.558;2023-06-19T03:00:42;100380.22;;;26.22;48.84
5812;BME280;2932;52.400;9.558;2023-06-19T03:03:08;100371.03;;;26.31;48.86
5812;BME280;2932;52.400;9.558;2023-06-19T03:05:33;100378.16;;;26.36;48.82
5812;BME280;2932;52.400;9.558;2023-06-19T03:07:58;100373.63;;;26.25;48.79
5812;BME280;2932;52.400;9.558;2023-06-19T03:10:24;100379.19;;;26.29;48.80
5812;BME280;2932;52.400;9.558;2023-06-19T03:12:49;100377.97;;;25.83;49.50
5812;BME280;2932;52.400;9.558;2023-06-19T03:15:15;100375.22;;;26.27;48.87
5812;BME280;2932;52.400;9.558;2023-06-19T03:17:40;100385.13;;;26.44;48.43
5812;BME280;2932;52.400;9.558;2023-06-19T03:20:06;100380.22;;;26.35;48.52
5812;BME280;2932;52.400;9.558;2023-06-19T03:22:31;100381.19;;;26.41;48.62
5812;BME280;2932;52.400;9.558;2023-06-19T03:24:57;100379.88;;;26.20;48.54
5812;BME280;2932;52.400;9.558;2023-06-19T03:27:23;100385.88;;;26.35;48.57
5812;BME280;2932;52.400;9.558;2023-06-19T03:29:51;100391.69;;;26.19;48.31
5812;BME280;2932;52.400;9.558;2023-06-19T03:32:16;100388.31;;;26.11;48.30
5812;BME280;2932;52.400;9.558;2023-06-19T03:34:42;100390.44;;;26.33;48.36
5812;BME280;2932;52.400;9.558;2023-06-19T03:37:07;100388.06;;;26.18;48.36
5812;BME280;2932;52.400;9.558;2023-06-19T03:39:32;100397.78;;;26.30;48.15
5812;BME280;2932;52.400;9.558;2023-06-19T03:41:58;100393.94;;;26.24;48.42
5812;BME280;2932;52.400;9.558;2023-06-19T03:44:23;100397.91;;;26.27;48.19
5812;BME280;2932;52.400;9.558;2023-06-19T03:46:48;100390.78;;;26.22;48.53
5812;BME280;2932;52.400;9.558;2023-06-19T03:49:15;100387.25;;;26.31;48.43
5812;BME280;2932;52.400;9.558;2023-06-19T03:51:40;100390.44;;;26.20;48.46
5812;BME280;2932;52.400;9.558;2023-06-19T03:54:06;100397.91;;;26.27;48.27
5812;BME280;2932;52.400;9.558;2023-06-19T03:56:31;100409.25;;;26.27;48.49
5812;BME280;2932;52.400;9.558;2023-06-19T03:58:56;100402.69;;;26.17;48.60
5812;BME280;2932;52.400;9.558;2023-06-19T04:01:22;100402.91;;;26.22;48.32
5812;BME280;2932;52.400;9.558;2023-06-19T04:03:47;100402.78;;;26.26;48.44
5812;BME280;2932;52.400;9.558;2023-06-19T04:06:12;100401.22;;;26.25;48.61
5812;BME280;2932;52.400;9.558;2023-06-19T04:08:38;100395.31;;;26.19;49.03
5812;BME280;2932;52.400;9.558;2023-06-19T04:11:03;100391.00;;;26.28;48.79
5812;BME280;2932;52.400;9.558;2023-06-19T04:13:28;100399.22;;;26.00;49.09
5812;BME280;2932;52.400;9.558;2023-06-19T04:15:54;100401.53;;;26.27;48.73
5812;BME280;2932;52.400;9.558;2023-06-19T04:18:19;100395.41;;;26.29;48.57
5812;BME280;2932;52.400;9.558;2023-06-19T04:20:44;100388.97;;;26.15;48.80
5812;BME280;2932;52.400;9.558;2023-06-19T04:23:09;100403.94;;;25.81;49.69
5812;BME280;2932;52.400;9.558;2023-06-19T04:25:35;100391.00;;;25.80;49.66
5812;BME280;2932;52.400;9.558;2023-06-19T04:28:00;100361.19;;;25.76;49.93
5812;BME280;2932;52.400;9.558;2023-06-19T04:30:29;100367.25;;;26.00;49.82
5812;BME280;2932;52.400;9.558;2023-06-19T04:32:55;100376.94;;;25.77;50.41
5812;BME280;2932;52.400;9.558;2023-06-19T04:35:21;100406.19;;;25.36;51.10
5812;BME280;2932;52.400;9.558;2023-06-19T04:37:48;100401.09;;;25.31;51.39
5812;BME280;2932;52.400;9.558;2023-06-19T04:40:14;100410.19;;;25.51;51.02
5812;BME280;2932;52.400;9.558;2023-06-19T04:42:39;100404.41;;;25.54;51.09
5812;BME280;2932;52.400;9.558;2023-06-19T04:45:05;100411.88;;;25.74;50.86
5812;BME280;2932;52.400;9.558;2023-06-19T04:47:32;100402.69;;;25.70;51.22
5812;BME280;2932;52.400;9.558;2023-06-19T04:49:58;100407.22;;;25.67;50.84
5812;BME280;2932;52.400;9.558;2023-06-19T04:52:23;100403.03;;;25.72;51.25
5812;BME280;2932;52.400;9.558;2023-06-19T04:54:48;100408.25;;;25.73;51.54
5812;BME280;2932;52.400;9.558;2023-06-19T04:57:14;100404.13;;;25.62;51.76
5812;BME280;2932;52.400;9.558;2023-06-19T04:59:41;100401.91;;;25.69;51.89
5812;BME280;2932;52.400;9.558;2023-06-19T05:02:06;100402.69;;;25.57;52.56
5812;BME280;2932;52.400;9.558;2023-06-19T05:04:32;100404.84;;;25.53;53.15
5812;BME280;2932;52.400;9.558;2023-06-19T05:06:58;100386.38;;;25.48;54.45
5812;BME280;2932;52.400;9.558;2023-06-19T05:09:24;100397.72;;;25.48;55.15
5812;BME280;2932;52.400;9.558;2023-06-19T05:11:49;100395.66;;;25.49;55.27
5812;BME280;2932;52.400;9.558;2023-06-19T05:14:14;100390.69;;;25.53;55.78
5812;BME280;2932;52.400;9.558;2023-06-19T05:16:40;100394.44;;;25.50;55.67
5812;BME280;2932;52.400;9.558;2023-06-19T05:19:05;100388.31;;;25.51;55.58
5812;BME280;2932;52.400;9.558;2023-06-19T05:21:30;100395.91;;;25.42;55.80
5812;BME280;2932;52.400;9.558;2023-06-19T05:23:56;100408.81;;;25.43;56.16
5812;BME280;2932;52.400;9.558;2023-06-19T05:26:21;100404.50;;;25.51;55.57
5812;BME280;2932;52.400;9.558;2023-06-19T05:28:48;100414.59;;;25.52;55.70
5812;BME280;2932;52.400;9.558;2023-06-19T05:31:13;100410.41;;;25.56;55.48
5812;BME280;2932;52.400;9.558;2023-06-19T05:33:40;100418.00;;;25.72;55.34
5812;BME280;2932;52.400;9.558;2023-06-19T05:36:05;100421.41;;;25.67;55.60
5812;BME280;2932;52.400;9.558;2023-06-19T05:38:31;100416.97;;;25.66;55.33
5812;BME280;2932;52.400;9.558;2023-06-19T05:40:57;100414.38;;;25.72;54.86
5812;BME280;2932;52.400;9.558;2023-06-19T05:43:22;100412.09;;;25.79;55.27
5812;BME280;2932;52.400;9.558;2023-06-19T05:45:49;100416.97;;;25.66;55.38
5812;BME280;2932;52.400;9.558;2023-06-19T05:48:15;100421.41;;;25.67;55.45
5812;BME280;2932;52.400;9.558;2023-06-19T05:50:40;100424.00;;;25.74;55.59
5812;BME280;2932;52.400;9.558;2023-06-19T05:53:06;100419.91;;;25.75;55.53
5812;BME280;2932;52.400;9.558;2023-06-19T05:55:31;100427.28;;;25.98;54.95
5812;BME280;2932;52.400;9.558;2023-06-19T05:57:57;100443.81;;;25.62;55.60
5812;BME280;2932;52.400;9.558;2023-06-19T06:00:22;100448.03;;;25.82;55.47
5812;BME280;2932;52.400;9.558;2023-06-19T06:02:48;100452.53;;;26.05;54.81
5812;BME280;2932;52.400;9.558;2023-06-19T06:05:16;100455.63;;;25.73;55.55
5812;BME280;2932;52.400;9.558;2023-06-19T06:07:42;100463.31;;;25.59;55.02
5812;BME280;2932;52.400;9.558;2023-06-19T06:10:08;100463.19;;;25.63;54.72
5812;BME280;2932;52.400;9.558;2023-06-19T06:12:34;100464.34;;;25.66;54.92
5812;BME280;2932;52.400;9.558;2023-06-19T06:15:06;100476.03;;;25.68;54.74
5812;BME280;2932;52.400;9.558;2023-06-19T06:17:31;100471.84;;;25.72;54.77
5812;BME280;2932;52.400;9.558;2023-06-19T06:19:57;100474.13;;;25.77;54.40
5812;BME280;2932;52.400;9.558;2023-06-19T06:22:22;100473.31;;;25.89;53.67
5812;BME280;2932;52.400;9.558;2023-06-19T06:24:47;100471.13;;;26.53;52.81
5812;BME280;2932;52.400;9.558;2023-06-19T06:27:13;100469.09;;;26.54;52.59
5812;BME280;2932;52.400;9.558;2023-06-19T06:29:39;100469.88;;;26.07;53.37
5812;BME280;2932;52.400;9.558;2023-06-19T06:32:05;100466.25;;;26.54;52.60
5812;BME280;2932;52.400;9.558;2023-06-19T06:34:31;100475.19;;;26.18;53.81
5812;BME280;2932;52.400;9.558;2023-06-19T06:36:58;100479.81;;;26.72;52.47
5812;BME280;2932;52.400;9.558;2023-06-19T06:39:23;100484.28;;;26.82;52.53
5812;BME280;2932;52.400;9.558;2023-06-19T06:41:49;100483.97;;;26.80;52.19
5812;BME280;2932;52.400;9.558;2023-06-19T06:44:14;100479.56;;;26.79;52.60
5812;BME280;2932;52.400;9.558;2023-06-19T06:46:40;100478.94;;;26.84;52.88
5812;BME280;2932;52.400;9.558;2023-06-19T06:49:05;100480.91;;;26.52;53.55
5812;BME280;2932;52.400;9.558;2023-06-19T06:51:30;100482.28;;;26.48;53.67
5812;BME280;2932;52.400;9.558;2023-06-19T06:53:56;100479.94;;;26.68;53.57
5812;BME280;2932;52.400;9.558;2023-06-19T06:56:21;100487.25;;;26.56;53.44
5812;BME280;2932;52.400;9.558;2023-06-19T06:58:46;100488.69;;;26.96;53.12
5812;BME280;2932;52.400;9.558;2023-06-19T07:01:12;100489.72;;;26.67;53.46
5812;BME280;2932;52.400;9.558;2023-06-19T07:03:37;100492.56;;;26.89;53.01
5812;BME280;2932;52.400;9.558;2023-06-19T07:06:02;100498.63;;;27.13;52.72
5812;BME280;2932;52.400;9.558;2023-06-19T07:08:28;100500.34;;;27.41;52.16
5812;BME280;2932;52.400;9.558;2023-06-19T07:10:53;100499.38;;;27.35;52.76
5812;BME280;2932;52.400;9.558;2023-06-19T07:13:19;100502.59;;;27.46;52.31
5812;BME280;2932;52.400;9.558;2023-06-19T07:15:44;100508.66;;;27.58;52.14
5812;BME280;2932;52.400;9.558;2023-06-19T07:18:09;100514.63;;;27.50;52.47
5812;BME280;2932;52.400;9.558;2023-06-19T07:20:35;100516.59;;;27.41;53.72
5812;BME280;2932;52.400;9.558;2023-06-19T07:23:00;100514.84;;;27.65;53.35
5812;BME280;2932;52.400;9.558;2023-06-19T07:25:26;100511.91;;;27.47;53.27
5812;BME280;2932;52.400;9.558;2023-06-19T07:27:52;100519.22;;;27.04;52.57
5812;BME280;2932;52.400;9.558;2023-06-19T07:30:17;100508.72;;;27.14;52.69
5812;BME280;2932;52.400;9.558;2023-06-19T07:32:43;100503.91;;;27.54;52.40
5812;BME280;2932;52.400;9.558;2023-06-19T07:35:08;100514.53;;;27.10;52.63
5812;BME280;2932;52.400;9.558;2023-06-19T07:37:34;100514.75;;;27.25;52.17
5812;BME280;2932;52.400;9.558;2023-06-19T07:39:59;100519.34;;;27.75;51.78
5812;BME280;2932;52.400;9.558;2023-06-19T07:42:26;100518.03;;;27.98;51.64
5812;BME280;2932;52.400;9.558;2023-06-19T07:44:51;100520.38;;;28.00;51.91
5812;BME280;2932;52.400;9.558;2023-06-19T07:47:17;100524.31;;;28.02;52.08
5812;BME280;2932;52.400;9.558;2023-06-19T07:49:43;100527.25;;;27.80;51.87
5812;BME280;2932;52.400;9.558;2023-06-19T07:52:09;100529.09;;;28.05;52.09
5812;BME280;2932;52.400;9.558;2023-06-19T07:54:34;100518.16;;;27.64;53.73
5812;BME280;2932;52.400;9.558;2023-06-19T07:57:00;100523.13;;;27.72;54.32
5812;BME280;2932;52.400;9.558;2023-06-19T07:59:26;100525.03;;;27.75;54.90
5812;BME280;2932;52.400;9.558;2023-06-19T08:01:51;100525.53;;;27.52;55.60
5812;BME280;2932;52.400;9.558;2023-06-19T08:04:17;100514.25;;;27.70;55.19
5812;BME280;2932;52.400;9.558;2023-06-19T08:06:42;100513.31;;;28.13;54.27
5812;BME280;2932;52.400;9.558;2023-06-19T08:09:07;100515.22;;;27.76;54.89
5812;BME280;2932;52.400;9.558;2023-06-19T08:11:33;100523.84;;;27.64;55.33
5812;BME280;2932;52.400;9.558;2023-06-19T08:13:59;100524.03;;;28.09;54.43
5812;BME280;2932;52.400;9.558;2023-06-19T08:16:25;100524.19;;;28.06;55.07
5812;BME280;2932;52.400;9.558;2023-06-19T08:18:50;100522.97;;;27.76;55.31
5812;BME280;2932;52.400;9.558;2023-06-19T08:21:16;100522.94;;;28.07;55.20
5812;BME280;2932;52.400;9.558;2023-06-19T08:23:41;100514.59;;;27.72;55.38
5812;BME280;2932;52.400;9.558;2023-06-19T08:26:09;100522.31;;;28.12;54.81
5812;BME280;2932;52.400;9.558;2023-06-19T08:28:34;100519.94;;;28.10;54.79
5812;BME280;2932;52.400;9.558;2023-06-19T08:31:00;100513.38;;;27.82;55.52
5812;BME280;2932;52.400;9.558;2023-06-19T08:33:25;100525.25;;;27.90;55.08
5812;BME280;2932;52.400;9.558;2023-06-19T08:35:51;100516.44;;;27.97;55.27
5812;BME280;2932;52.400;9.558;2023-06-19T08:38:16;100512.84;;;28.15;54.91
5812;BME280;2932;52.400;9.558;2023-06-19T08:40:42;100516.75;;;28.08;55.06
5812;BME280;2932;52.400;9.558;2023-06-19T08:43:11;100522.47;;;28.08;55.23
5812;BME280;2932;52.400;9.558;2023-06-19T08:45:36;100518.06;;;28.16;54.91
5812;BME280;2932;52.400;9.558;2023-06-19T08:48:02;100524.41;;;28.20;55.25
5812;BME280;2932;52.400;9.558;2023-06-19T08:50:32;100524.41;;;28.20;54.91
5812;BME280;2932;52.400;9.558;2023-06-19T08:52:57;100532.38;;;28.53;54.41
5812;BME280;2932;52.400;9.558;2023-06-19T08:55:23;100516.75;;;28.58;54.66
5812;BME280;2932;52.400;9.558;2023-06-19T08:57:49;100510.75;;;28.65;53.77
5812;BME280;2932;52.400;9.558;2023-06-19T09:00:29;100517.66;;;28.45;54.45
5812;BME280;2932;52.400;9.558;2023-06-19T09:03:02;100521.53;;;28.11;54.88
5812;BME280;2932;52.400;9.558;2023-06-19T09:05:28;100528.47;;;28.69;54.29
5812;BME280;2932;52.400;9.558;2023-06-19T09:07:55;100526.44;;;28.97;53.98
5812;BME280;2932;52.400;9.558;2023-06-19T09:10:21;100528.97;;;28.95;53.89
5812;BME280;2932;52.400;9.558;2023-06-19T09:12:57;100532.75;;;29.10;53.26
5812;BME280;2932;52.400;9.558;2023-06-19T09:15:23;100525.47;;;29.00;53.14
5812;BME280;2932;52.400;9.558;2023-06-19T09:18:08;100525.47;;;29.09;53.71
5812;BME280;2932;52.400;9.558;2023-06-19T09:20:39;100524.03;;;28.86;53.71
5812;BME280;2932;52.400;9.558;2023-06-19T09:23:09;100525.16;;;29.07;53.84
5812;BME280;2932;52.400;9.558;2023-06-19T09:25:51;100554.28;;;29.02;53.73
5812;BME280;2932;52.400;9.558;2023-06-19T09:28:25;100537.66;;;28.73;54.68
5812;BME280;2932;52.400;9.558;2023-06-19T09:30:55;100550.13;;;28.66;54.75
5812;BME280;2932;52.400;9.558;2023-06-19T09:33:23;100549.31;;;28.57;55.30
5812;BME280;2932;52.400;9.558;2023-06-19T09:35:49;100547.78;;;28.92;54.42
5812;BME280;2932;52.400;9.558;2023-06-19T09:38:16;100551.00;;;28.27;55.70
5812;BME280;2932;52.400;9.558;2023-06-19T09:40:44;100568.59;;;28.43;55.20
5812;BME280;2932;52.400;9.558;2023-06-19T09:43:11;100548.81;;;28.00;55.96
5812;BME280;2932;52.400;9.558;2023-06-19T09:45:37;100547.88;;;28.03;55.86
5812;BME280;2932;52.400;9.558;2023-06-19T09:48:03;100563.31;;;28.24;55.13
5812;BME280;2932;52.400;9.558;2023-06-19T09:50:29;100565.88;;;28.40;54.77
5812;BME280;2932;52.400;9.558;2023-06-19T09:52:55;100557.34;;;28.31;54.76
5812;BME280;2932;52.400;9.558;2023-06-19T09:55:24;100561.13;;;28.28;55.22
5812;BME280;2932;52.400;9.558;2023-06-19T09:57:50;100560.94;;;28.22;55.26
5812;BME280;2932;52.400;9.558;2023-06-19T10:00:16;100565.19;;;28.76;54.19
5812;BME280;2932;52.400;9.558;2023-06-19T10:02:48;100564.72;;;28.86;54.75
5812;BME280;2932;52.400;9.558;2023-06-19T10:05:14;100568.81;;;29.22;53.65
5812;BME280;2932;52.400;9.558;2023-06-19T10:07:44;100573.53;;;28.79;54.78
5812;BME280;2932;52.400;9.558;2023-06-19T10:10:27;100584.41;;;28.44;54.68
5812;BME280;2932;52.400;9.558;2023-06-19T10:12:58;100566.09;;;28.54;54.76
5812;BME280;2932;52.400;9.558;2023-06-19T10:15:28;100597.38;;;28.36;55.23
5812;BME280;2932;52.400;9.558;2023-06-19T10:18:02;100576.00;;;28.32;55.43
5812;BME280;2932;52.400;9.558;2023-06-19T10:20:35;100572.88;;;28.39;55.10
5812;BME280;2932;52.400;9.558;2023-06-19T10:23:19;100578.63;;;28.75;54.82
5812;BME280;2932;52.400;9.558;2023-06-19T10:25:57;100586.25;;;28.97;54.25
5812;BME280;2932;52.400;9.558;2023-06-19T10:30:56;100574.06;;;28.96;54.01
5812;BME280;2932;52.400;9.558;2023-06-19T10:33:29;100583.56;;;29.11;53.49
5812;BME280;2932;52.400;9.558;2023-06-19T10:35:56;100570.44;;;29.05;52.55
5812;BME280;2932;52.400;9.558;2023-06-19T10:38:22;100575.63;;;29.34;52.56
5812;BME280;2932;52.400;9.558;2023-06-19T10:40:48;100566.47;;;29.11;52.34
5812;BME280;2932;52.400;9.558;2023-06-19T10:43:20;100579.72;;;28.78;52.85
5812;BME280;2932;52.400;9.558;2023-06-19T10:45:47;100578.34;;;28.92;53.26
5812;BME280;2932;52.400;9.558;2023-06-19T10:48:19;100580.09;;;28.98;52.25
5812;BME280;2932;52.400;9.558;2023-06-19T10:50:44;100571.28;;;29.75;51.26
5812;BME280;2932;52.400;9.558;2023-06-19T10:53:10;100574.84;;;29.42;51.81
5812;BME280;2932;52.400;9.558;2023-06-19T10:55:35;100576.59;;;29.12;52.39
5812;BME280;2932;52.400;9.558;2023-06-19T10:58:00;100572.66;;;29.10;52.52
5812;BME280;2932;52.400;9.558;2023-06-19T11:00:30;100579.91;;;28.83;53.21
5812;BME280;2932;52.400;9.558;2023-06-19T11:02:57;100590.78;;;28.17;53.52
5812;BME280;2932;52.400;9.558;2023-06-19T11:05:24;100586.66;;;28.59;52.71
5812;BME280;2932;52.400;9.558;2023-06-19T11:07:59;100578.16;;;29.50;51.77
5812;BME280;2932;52.400;9.558;2023-06-19T11:10:26;100578.78;;;29.36;50.89
5812;BME280;2932;52.400;9.558;2023-06-19T11:12:57;100585.59;;;29.57;50.28
5812;BME280;2932;52.400;9.558;2023-06-19T11:15:33;100583.72;;;29.08;51.70
5812;BME280;2932;52.400;9.558;2023-06-19T11:17:59;100583.69;;;29.35;51.33
5812;BME280;2932;52.400;9.558;2023-06-19T11:20:25;100584.50;;;29.36;52.25
5812;BME280;2932;52.400;9.558;2023-06-19T11:23:00;100591.94;;;29.24;52.93
5812;BME280;2932;52.400;9.558;2023-06-19T11:25:36;100594.00;;;28.87;53.67
5812;BME280;2932;52.400;9.558;2023-06-19T11:28:03;100593.53;;;29.16;52.41
5812;BME280;2932;52.400;9.558;2023-06-19T11:30:33;100596.53;;;29.03;53.28
5812;BME280;2932;52.400;9.558;2023-06-19T11:32:58;100593.00;;;29.72;51.69
5812;BME280;2932;52.400;9.558;2023-06-19T11:35:24;100588.16;;;29.45;51.76
5812;BME280;2932;52.400;9.558;2023-06-19T11:37:51;100598.78;;;29.08;53.07
5812;BME280;2932;52.400;9.558;2023-06-19T11:40:16;100608.72;;;28.95;53.03
5812;BME280;2932;52.400;9.558;2023-06-19T11:42:50;100607.59;;;28.83;53.13
5812;BME280;2932;52.400;9.558;2023-06-19T11:45:16;100609.22;;;29.48;52.73
5812;BME280;2932;52.400;9.558;2023-06-19T11:47:43;100601.91;;;29.29;52.35
5812;BME280;2932;52.400;9.558;2023-06-19T11:50:09;100597.31;;;29.59;51.78
5812;BME280;2932;52.400;9.558;2023-06-19T11:52:34;100604.50;;;29.96;51.09
5812;BME280;2932;52.400;9.558;2023-06-19T11:55:00;100609.56;;;30.01;50.68
5812;BME280;2932;52.400;9.558;2023-06-19T11:57:26;100601.63;;;30.05;50.14
5812;BME280;2932;52.400;9.558;2023-06-19T11:59:52;100609.81;;;30.22;49.51
5812;BME280;2932;52.400;9.558;2023-06-19T12:02:17;100601.81;;;30.02;49.71
5812;BME280;2932;52.400;9.558;2023-06-19T12:04:42;100607.41;;;29.78;49.90
5812;BME280;2932;52.400;9.558;2023-06-19T12:07:08;100613.81;;;29.18;51.45
5812;BME280;2932;52.400;9.558;2023-06-19T12:09:34;100613.75;;;29.82;50.51
5812;BME280;2932;52.400;9.558;2023-06-19T12:11:59;100612.50;;;29.74;51.13
5812;BME280;2932;52.400;9.558;2023-06-19T12:14:25;100608.38;;;29.75;50.92
5812;BME280;2932;52.400;9.558;2023-06-19T12:16:51;100622.38;;;29.45;50.89
5812;BME280;2932;52.400;9.558;2023-06-19T12:19:17;100610.78;;;29.58;51.15
5812;BME280;2932;52.400;9.558;2023-06-19T12:21:42;100623.84;;;30.01;50.31
5812;BME280;2932;52.400;9.558;2023-06-19T12:24:08;100614.59;;;29.46;50.79
5812;BME280;2932;52.400;9.558;2023-06-19T12:26:34;100631.47;;;29.95;50.62
5812;BME280;2932;52.400;9.558;2023-06-19T12:29:02;100633.44;;;29.16;51.93
5812;BME280;2932;52.400;9.558;2023-06-19T12:31:29;100626.22;;;30.03;51.09
5812;BME280;2932;52.400;9.558;2023-06-19T12:33:54;100620.31;;;30.48;49.89
5812;BME280;2932;52.400;9.558;2023-06-19T12:36:22;100632.72;;;30.03;50.86
5812;BME280;2932;52.400;9.558;2023-06-19T12:38:47;100630.66;;;29.95;51.01
5812;BME280;2932;52.400;9.558;2023-06-19T12:41:14;100628.69;;;30.52;50.04
5812;BME280;2932;52.400;9.558;2023-06-19T12:43:39;100636.34;;;30.13;49.82
5812;BME280;2932;52.400;9.558;2023-06-19T12:46:05;100630.66;;;30.79;49.27
5812;BME280;2932;52.400;9.558;2023-06-19T12:48:30;100627.22;;;30.33;49.77
5812;BME280;2932;52.400;9.558;2023-06-19T12:50:56;100632.78;;;30.27;50.47
5812;BME280;2932;52.400;9.558;2023-06-19T12:53:22;100626.78;;;30.58;49.87
5812;BME280;2932;52.400;9.558;2023-06-19T12:55:57;100624.47;;;30.95;48.23
5812;BME280;2932;52.400;9.558;2023-06-19T12:58:23;100633.19;;;30.77;48.74
5812;BME280;2932;52.400;9.558;2023-06-19T13:00:49;100632.50;;;31.06;48.70
5812;BME280;2932;52.400;9.558;2023-06-19T13:03:14;100638.34;;;30.88;48.53
5812;BME280;2932;52.400;9.558;2023-06-19T13:05:40;100649.38;;;29.96;49.87
5812;BME280;2932;52.400;9.558;2023-06-19T13:08:05;100628.31;;;29.84;50.35
5812;BME280;2932;52.400;9.558;2023-06-19T13:10:30;100637.22;;;29.68;50.59